sensor_id;sensor_type;location;lat;lon;timestamp;temperature;humidity
54409;DHT22;40315;48.620;9.828;2023-08-24T00:02:07;20.30;99.90
54409;DHT22;40315;48.620;9.828;2023-08-24T00:04:35;20.40;99.90
54409;DHT22;40315;48.620;9.828;2023-08-24T00:07:02;20.50;99.90
54409;DHT22;40315;48.620;9.828;2023-08-24T00:09:30;20.30;99.90
54409;DHT22;40315;48.620;9.828;2023-08-24T00:11:59;20.20;99.90
54409;DHT22;40315;48.620;9.828;2023-08-24T00:14:29;20.70;99.90
54409;DHT22;40315;48.620;9.828;2023-08-24T00:16:55;20.50;99.90
54409;DHT22;40315;48.620;9.828;2023-08-24T00:19:22;20.50;99.90
54409;DHT22;40315;48.620;9.828;2023-08-24T00:21:50;20.40;99.90
54409;DHT22;40315;48.620;9.828;2023-08-24T00:24:21;20.20;99.90
54409;DHT22;40315;48.620;9.828;2023-08-24T00:29:15;19.90;99.90
54409;DHT22;40315;48.620;9.828;2023-08-24T00:31:44;19.90;99.90
54409;DHT22;40315;48.620;9.828;2023-08-24T00:34:11;20.00;99.90
54409;DHT22;40315;48.620;9.828;2023-08-24T00:36:39;20.10;99.90
54409;DHT22;40315;48.620;9.828;2023-08-24T00:39:09;20.20;99.90
54409;DHT22;40315;48.620;9.828;2023-08-24T00:41:39;20.10;99.90
54409;DHT22;40315;48.620;9.828;2023-08-24T00:44:07;20.00;99.90
54409;DHT22;40315;48.620;9.828;2023-08-24T00:46:34;20.00;99.90
54409;DHT22;40315;48.620;9.828;2023-08-24T00:49:04;20.00;99.90
54409;DHT22;40315;48.620;9.828;2023-08-24T00:51:32;19.90;99.90
54409;DHT22;40315;48.620;9.828;2023-08-24T00:53:59;19.80;99.90
54409;DHT22;40315;48.620;9.828;2023-08-24T00:56:27;19.70;99.90
54409;DHT22;40315;48.620;9.828;2023-08-24T00:58:56;19.60;99.90
54409;DHT22;40315;48.620;9.828;2023-08-24T01:03:59;19.90;99.90
54409;DHT22;40315;48.620;9.828;2023-08-24T01:06:28;19.70;99.90
54409;DHT22;40315;48.620;9.828;2023-08-24T01:08:55;19.50;99.90
54409;DHT22;40315;48.620;9.828;2023-08-24T01:11:29;19.50;99.90
54409;DHT22;40315;48.620;9.828;2023-08-24T01:14:04;19.70;99.90
54409;DHT22;40315;48.620;9.828;2023-08-24T01:16:34;19.70;99.90
54409;DHT22;40315;48.620;9.828;2023-08-24T01:19:10;19.50;99.90
54409;DHT22;40315;48.620;9.828;2023-08-24T01:21:42;19.30;99.90
54409;DHT22;40315;48.620;9.828;2023-08-24T01:24:14;19.30;99.90
54409;DHT22;40315;48.620;9.828;2023-08-24T01:26:45;19.10;99.90
54409;DHT22;40315;48.620;9.828;2023-08-24T01:29:13;19.10;99.90
54409;DHT22;40315;48.620;9.828;2023-08-24T01:31:41;19.10;99.90
54409;DHT22;40315;48.620;9.828;2023-08-24T01:34:10;19.10;99.90
54409;DHT22;40315;48.620;9.828;2023-08-24T01:39:11;19.60;99.90
54409;DHT22;40315;48.620;9.828;2023-08-24T01:41:43;19.70;99.90
54409;DHT22;40315;48.620;9.828;2023-08-24T01:44:15;19.60;99.90
54409;DHT22;40315;48.620;9.828;2023-08-24T01:46:45;19.20;99.90
54409;DHT22;40315;48.620;9.828;2023-08-24T04:31:09;17.80;99.90
54409;DHT22;40315;48.620;9.828;2023-08-24T04:57:09;17.70;99.90
54409;DHT22;40315;48.620;9.828;2023-08-24T04:59:36;17.90;99.90
54409;DHT22;40315;48.620;9.828;2023-08-24T05:02:03;17.90;99.90
54409;DHT22;40315;48.620;9.828;2023-08-24T05:04:31;18.00;99.90
54409;DHT22;40315;48.620;9.828;2023-08-24T05:07:00;18.10;99.90
54409;DHT22;40315;48.620;9.828;2023-08-24T05:09:27;18.10;99.90
54409;DHT22;40315;48.620;9.828;2023-08-24T05:11:54;18.10;99.90
54409;DHT22;40315;48.620;9.828;2023-08-24T05:14:23;18.20;99.90
54409;DHT22;40315;48.620;9.828;2023-08-24T05:16:50;18.20;99.90
54409;DHT22;40315;48.620;9.828;2023-08-24T05:19:19;18.20;99.90
54409;DHT22;40315;48.620;9.828;2023-08-24T05:21:46;18.20;99.90
54409;DHT22;40315;48.620;9.828;2023-08-24T05:24:13;18.20;99.90
54409;DHT22;40315;48.620;9.828;2023-08-24T05:26:42;18.30;99.90
54409;DHT22;40315;48.620;9.828;2023-08-24T05:29:09;18.30;99.90
54409;DHT22;40315;48.620;9.828;2023-08-24T05:31:37;18.40;99.90
54409;DHT22;40315;48.620;9.828;2023-08-24T05:34:04;18.40;99.90
54409;DHT22;40315;48.620;9.828;2023-08-24T05:36:31;18.40;99.90
54409;DHT22;40315;48.620;9.828;2023-08-24T05:38:58;18.40;99.90
54409;DHT22;40315;48.620;9.828;2023-08-24T05:41:25;18.40;99.90
54409;DHT22;40315;48.620;9.828;2023-08-24T05:43:52;18.50;99.90
54409;DHT22;40315;48.620;9.828;2023-08-24T05:46:21;18.60;99.90
54409;DHT22;40315;48.620;9.828;2023-08-24T05:48:49;18.70;99.90
54409;DHT22;40315;48.620;9.828;2023-08-24T05:51:16;18.80;99.90
54409;DHT22;40315;48.620;9.828;2023-08-24T05:53:43;18.80;99.90
54409;DHT22;40315;48.620;9.828;2023-08-24T05:56:12;18.90;99.90
54409;DHT22;40315;48.620;9.828;2023-08-24T05:58:41;18.90;99.90
54409;DHT22;40315;48.620;9.828;2023-08-24T06:01:08;18.90;99.90
54409;DHT22;40315;48.620;9.828;2023-08-24T06:03:37;19.00;99.90
54409;DHT22;40315;48.620;9.828;2023-08-24T06:06:08;19.10;99.90
54409;DHT22;40315;48.620;9.828;2023-08-24T06:08:35;19.20;99.90
54409;DHT22;40315;48.620;9.828;2023-08-24T06:11:02;19.40;99.90
54409;DHT22;40315;48.620;9.828;2023-08-24T06:13:29;19.50;99.90
54409;DHT22;40315;48.620;9.828;2023-08-24T06:15:58;19.70;99.90
54409;DHT22;40315;48.620;9.828;2023-08-24T06:18:25;19.90;99.90
54409;DHT22;40315;48.620;9.828;2023-08-24T06:20:53;20.20;99.90
54409;DHT22;40315;48.620;9.828;2023-08-24T06:23:23;20.30;99.90
54409;DHT22;40315;48.620;9.828;2023-08-24T06:25:51;20.60;99.90
54409;DHT22;40315;48.620;9.828;2023-08-24T06:28:18;20.80;99.90
54409;DHT22;40315;48.620;9.828;2023-08-24T06:30:45;21.00;99.90
54409;DHT22;40315;48.620;9.828;2023-08-24T06:33:17;21.10;99.90
54409;DHT22;40315;48.620;9.828;2023-08-24T06:35:44;21.10;99.90
54409;DHT22;40315;48.620;9.828;2023-08-24T06:38:11;21.30;99.90
54409;DHT22;40315;48.620;9.828;2023-08-24T06:40:39;21.70;99.90
54409;DHT22;40315;48.620;9.828;2023-08-24T06:43:06;22.30;99.90
54409;DHT22;40315;48.620;9.828;2023-08-24T06:45:35;22.80;99.90
54409;DHT22;40315;48.620;9.828;2023-08-24T06:48:04;23.00;99.90
54409;DHT22;40315;48.620;9.828;2023-08-24T06:50:35;23.20;99.90
54409;DHT22;40315;48.620;9.828;2023-08-24T06:53:05;23.30;99.90
54409;DHT22;40315;48.620;9.828;2023-08-24T06:55:32;23.60;99.90
54409;DHT22;40315;48.620;9.828;2023-08-24T06:58:03;23.80;99.90
54409;DHT22;40315;48.620;9.828;2023-08-24T07:00:31;24.00;99.90
54409;DHT22;40315;48.620;9.828;2023-08-24T07:03:00;24.00;99.90
54409;DHT22;40315;48.620;9.828;2023-08-24T07:05:29;24.00;99.90
54409;DHT22;40315;48.620;9.828;2023-08-24T07:07:59;24.00;99.90
54409;DHT22;40315;48.620;9.828;2023-08-24T07:10:26;24.00;99.90
54409;DHT22;40315;48.620;9.828;2023-08-24T07:12:53;23.80;99.90
54409;DHT22;40315;48.620;9.828;2023-08-24T07:15:21;23.70;99.90
54409;DHT22;40315;48.620;9.828;2023-08-24T07:17:48;23.70;99.90
54409;DHT22;40315;48.620;9.828;2023-08-24T07:20:17;23.60;99.90
54409;DHT22;40315;48.620;9.828;2023-08-24T07:22:45;23.60;99.90
54409;DHT22;40315;48.620;9.828;2023-08-24T07:25:12;23.50;99.90
54409;DHT22;40315;48.620;9.828;2023-08-24T07:27:40;23.40;99.90
54409;DHT22;40315;48.620;9.828;2023-08-24T07:30:08;23.30;99.90
54409;DHT22;40315;48.620;9.828;2023-08-24T07:32:38;23.40;99.90
54409;DHT22;40315;48.620;9.828;2023-08-24T07:35:05;23.40;99.90
54409;DHT22;40315;48.620;9.828;2023-08-24T07:37:32;23.40;99.90
54409;DHT22;40315;48.620;9.828;2023-08-24T07:39:59;23.50;99.90
54409;DHT22;40315;48.620;9.828;2023-08-24T07:42:26;23.60;99.90
54409;DHT22;40315;48.620;9.828;2023-08-24T07:44:53;23.60;99.90
54409;DHT22;40315;48.620;9.828;2023-08-24T07:47:20;23.80;99.90
54409;DHT22;40315;48.620;9.828;2023-08-24T07:49:48;23.80;99.90
54409;DHT22;40315;48.620;9.828;2023-08-24T07:52:15;24.50;99.90
54409;DHT22;40315;48.620;9.828;2023-08-24T07:54:44;24.50;99.90
54409;DHT22;40315;48.620;9.828;2023-08-24T07:57:13;24.80;99.90
54409;DHT22;40315;48.620;9.828;2023-08-24T07:59:40;25.10;99.90
54409;DHT22;40315;48.620;9.828;2023-08-24T08:02:07;25.50;99.90
54409;DHT22;40315;48.620;9.828;2023-08-24T08:04:35;25.90;99.90
54409;DHT22;40315;48.620;9.828;2023-08-24T08:07:03;26.30;99.90
54409;DHT22;40315;48.620;9.828;2023-08-24T08:09:32;26.60;99.90
54409;DHT22;40315;48.620;9.828;2023-08-24T08:11:59;26.90;99.90
54409;DHT22;40315;48.620;9.828;2023-08-24T08:14:26;27.20;99.90
54409;DHT22;40315;48.620;9.828;2023-08-24T08:16:53;27.40;99.90
54409;DHT22;40315;48.620;9.828;2023-08-24T08:19:20;27.60;99.90
54409;DHT22;40315;48.620;9.828;2023-08-24T08:21:49;27.90;99.90
54409;DHT22;40315;48.620;9.828;2023-08-24T08:24:20;28.20;99.90
54409;DHT22;40315;48.620;9.828;2023-08-24T08:26:47;28.10;99.90
54409;DHT22;40315;48.620;9.828;2023-08-24T08:29:14;28.20;99.90
54409;DHT22;40315;48.620;9.828;2023-08-24T08:31:42;28.40;99.90
54409;DHT22;40315;48.620;9.828;2023-08-24T08:34:08;28.70;99.90
54409;DHT22;40315;48.620;9.828;2023-08-24T08:36:35;28.90;99.90
54409;DHT22;40315;48.620;9.828;2023-08-24T08:39:05;28.90;99.90
54409;DHT22;40315;48.620;9.828;2023-08-24T08:41:38;29.10;99.90
54409;DHT22;40315;48.620;9.828;2023-08-24T08:44:13;29.10;99.90
54409;DHT22;40315;48.620;9.828;2023-08-24T08:46:43;28.90;99.90
54409;DHT22;40315;48.620;9.828;2023-08-24T08:49:12;28.70;99.90
54409;DHT22;40315;48.620;9.828;2023-08-24T08:51:41;28.70;99.90
54409;DHT22;40315;48.620;9.828;2023-08-24T08:54:09;28.50;99.90
54409;DHT22;40315;48.620;9.828;2023-08-24T08:56:37;28.60;99.90
54409;DHT22;40315;48.620;9.828;2023-08-24T08:59:07;28.60;99.90
54409;DHT22;40315;48.620;9.828;2023-08-24T09:01:37;28.60;99.90
54409;DHT22;40315;48.620;9.828;2023-08-24T09:04:06;28.50;99.90
54409;DHT22;40315;48.620;9.828;2023-08-24T09:06:37;28.60;99.90
54409;DHT22;40315;48.620;9.828;2023-08-24T09:09:08;28.70;99.90
54409;DHT22;40315;48.620;9.828;2023-08-24T09:11:36;28.90;99.90
54409;DHT22;40315;48.620;9.828;2023-08-24T09:14:05;28.90;99.90
54409;DHT22;40315;48.620;9.828;2023-08-24T09:16:34;28.90;99.90
54409;DHT22;40315;48.620;9.828;2023-08-24T09:19:05;29.10;99.90
54409;DHT22;40315;48.620;9.828;2023-08-24T09:21:37;28.70;99.90
54409;DHT22;40315;48.620;9.828;2023-08-24T09:24:07;29.40;99.90
54409;DHT22;40315;48.620;9.828;2023-08-24T09:26:37;29.60;99.90
54409;DHT22;40315;48.620;9.828;2023-08-24T09:29:12;29.80;99.90
54409;DHT22;40315;48.620;9.828;2023-08-24T09:31:39;29.80;99.90
54409;DHT22;40315;48.620;9.828;2023-08-24T09:34:07;29.80;99.90
54409;DHT22;40315;48.620;9.828;2023-08-24T09:36:37;29.90;99.90
54409;DHT22;40315;48.620;9.828;2023-08-24T09:39:07;29.90;99.90
54409;DHT22;40315;48.620;9.828;2023-08-24T09:41:38;30.50;99.90
54409;DHT22;40315;48.620;9.828;2023-08-24T09:44:06;30.60;99.90
54409;DHT22;40315;48.620;9.828;2023-08-24T09:46:34;30.70;99.90
54409;DHT22;40315;48.620;9.828;2023-08-24T09:49:01;30.70;99.90
54409;DHT22;40315;48.620;9.828;2023-08-24T09:51:31;30.90;99.90
54409;DHT22;40315;48.620;9.828;2023-08-24T09:54:03;31.00;99.90
54409;DHT22;40315;48.620;9.828;2023-08-24T09:56:34;31.20;99.90
54409;DHT22;40315;48.620;9.828;2023-08-24T09:59:10;31.10;99.90
54409;DHT22;40315;48.620;9.828;2023-08-24T10:01:43;31.30;99.90
54409;DHT22;40315;48.620;9.828;2023-08-24T10:04:13;31.50;99.90
54409;DHT22;40315;48.620;9.828;2023-08-24T10:06:42;31.60;99.90
54409;DHT22;40315;48.620;9.828;2023-08-24T10:09:17;32.00;99.90
54409;DHT22;40315;48.620;9.828;2023-08-24T10:11:51;32.30;99.90
54409;DHT22;40315;48.620;9.828;2023-08-24T10:14:25;32.30;99.90
54409;DHT22;40315;48.620;9.828;2023-08-24T10:16:54;32.20;99.90
54409;DHT22;40315;48.620;9.828;2023-08-24T10:19:22;32.40;99.90
54409;DHT22;40315;48.620;9.828;2023-08-24T10:21:50;32.40;99.90
54409;DHT22;40315;48.620;9.828;2023-08-24T10:24:18;32.20;99.90
54409;DHT22;40315;48.620;9.828;2023-08-24T10:26:46;32.40;99.90
54409;DHT22;40315;48.620;9.828;2023-08-24T10:29:15;32.40;99.90
54409;DHT22;40315;48.620;9.828;2023-08-24T10:31:44;32.50;99.90
54409;DHT22;40315;48.620;9.828;2023-08-24T10:34:11;32.90;99.90
54409;DHT22;40315;48.620;9.828;2023-08-24T10:36:39;33.10;99.90
54409;DHT22;40315;48.620;9.828;2023-08-24T10:39:06;33.20;99.90
54409;DHT22;40315;48.620;9.828;2023-08-24T10:41:50;33.20;99.90
54409;DHT22;40315;48.620;9.828;2023-08-24T10:44:20;33.10;99.90
54409;DHT22;40315;48.620;9.828;2023-08-24T10:47:13;33.30;99.90
54409;DHT22;40315;48.620;9.828;2023-08-24T10:49:40;33.30;99.90
54409;DHT22;40315;48.620;9.828;2023-08-24T10:52:21;33.30;99.60
54409;DHT22;40315;48.620;9.828;2023-08-24T10:54:50;33.20;98.50
54409;DHT22;40315;48.620;9.828;2023-08-24T10:57:21;32.90;99.40
54409;DHT22;40315;48.620;9.828;2023-08-24T10:59:58;32.90;99.90
54409;DHT22;40315;48.620;9.828;2023-08-24T11:02:27;33.20;98.30
54409;DHT22;40315;48.620;9.828;2023-08-24T11:05:07;33.30;98.70
54409;DHT22;40315;48.620;9.828;2023-08-24T11:07:34;33.30;98.40
54409;DHT22;40315;48.620;9.828;2023-08-24T11:10:14;33.50;97.90
54409;DHT22;40315;48.620;9.828;2023-08-24T11:13:10;33.60;97.60
54409;DHT22;40315;48.620;9.828;2023-08-24T11:15:39;33.30;97.70
54409;DHT22;40315;48.620;9.828;2023-08-24T11:18:24;33.30;97.80
54409;DHT22;40315;48.620;9.828;2023-08-24T11:20:53;33.40;97.20
54409;DHT22;40315;48.620;9.828;2023-08-24T11:23:23;33.60;96.30
54409;DHT22;40315;48.620;9.828;2023-08-24T11:25:53;33.80;96.60
54409;DHT22;40315;48.620;9.828;2023-08-24T11:28:23;33.70;97.10
54409;DHT22;40315;48.620;9.828;2023-08-24T11:30:52;33.80;97.90
54409;DHT22;40315;48.620;9.828;2023-08-24T11:33:29;34.20;97.90
54409;DHT22;40315;48.620;9.828;2023-08-24T11:35:56;34.70;96.90
54409;DHT22;40315;48.620;9.828;2023-08-24T11:38:23;34.40;97.30
54409;DHT22;40315;48.620;9.828;2023-08-24T11:40:53;34.30;97.00
54409;DHT22;40315;48.620;9.828;2023-08-24T11:43:25;34.20;97.20
54409;DHT22;40315;48.620;9.828;2023-08-24T11:45:53;34.30;97.40
54409;DHT22;40315;48.620;9.828;2023-08-24T11:48:24;34.60;97.10
54409;DHT22;40315;48.620;9.828;2023-08-24T11:50:53;34.60;96.00
54409;DHT22;40315;48.620;9.828;2023-08-24T11:53:20;34.60;96.40
54409;DHT22;40315;48.620;9.828;2023-08-24T11:55:52;34.70;95.60
54409;DHT22;40315;48.620;9.828;2023-08-24T11:58:19;34.60;95.80
54409;DHT22;40315;48.620;9.828;2023-08-24T12:00:47;34.40;96.00
54409;DHT22;40315;48.620;9.828;2023-08-24T12:03:16;34.30;95.90
54409;DHT22;40315;48.620;9.828;2023-08-24T12:05:43;34.30;96.20
54409;DHT22;40315;48.620;9.828;2023-08-24T12:08:12;34.60;95.40
54409;DHT22;40315;48.620;9.828;2023-08-24T12:10:42;34.70;95.00
54409;DHT22;40315;48.620;9.828;2023-08-24T12:13:09;34.90;95.30
54409;DHT22;40315;48.620;9.828;2023-08-24T12:15:36;35.30;94.40
54409;DHT22;40315;48.620;9.828;2023-08-24T12:18:11;35.30;93.50
54409;DHT22;40315;48.620;9.828;2023-08-24T12:20:41;35.00;93.60
54409;DHT22;40315;48.620;9.828;2023-08-24T12:23:09;35.00;94.50
54409;DHT22;40315;48.620;9.828;2023-08-24T12:25:42;35.10;94.70
54409;DHT22;40315;48.620;9.828;2023-08-24T12:28:10;35.10;94.70
54409;DHT22;40315;48.620;9.828;2023-08-24T12:30:45;35.10;94.70
54409;DHT22;40315;48.620;9.828;2023-08-24T12:33:24;35.10;94.80
54409;DHT22;40315;48.620;9.828;2023-08-24T12:35:55;35.30;94.80
54409;DHT22;40315;48.620;9.828;2023-08-24T12:38:22;35.30;94.80
54409;DHT22;40315;48.620;9.828;2023-08-24T12:40:52;35.10;94.30
54409;DHT22;40315;48.620;9.828;2023-08-24T12:43:19;35.40;94.50
54409;DHT22;40315;48.620;9.828;2023-08-24T12:45:46;35.40;95.00
54409;DHT22;40315;48.620;9.828;2023-08-24T12:48:13;35.50;94.30
54409;DHT22;40315;48.620;9.828;2023-08-24T12:50:40;35.60;94.10
54409;DHT22;40315;48.620;9.828;2023-08-24T12:53:07;35.90;94.40
54409;DHT22;40315;48.620;9.828;2023-08-24T12:55:35;35.60;94.50
54409;DHT22;40315;48.620;9.828;2023-08-24T12:58:04;35.70;94.20
54409;DHT22;40315;48.620;9.828;2023-08-24T13:00:31;35.90;94.80
54409;DHT22;40315;48.620;9.828;2023-08-24T13:02:58;36.20;94.00
54409;DHT22;40315;48.620;9.828;2023-08-24T13:05:27;36.40;93.20
54409;DHT22;40315;48.620;9.828;2023-08-24T13:07:54;36.20;93.70
54409;DHT22;40315;48.620;9.828;2023-08-24T13:10:22;36.20;94.00
54409;DHT22;40315;48.620;9.828;2023-08-24T13:12:51;36.40;93.80
54409;DHT22;40315;48.620;9.828;2023-08-24T13:15:19;36.50;93.50
54409;DHT22;40315;48.620;9.828;2023-08-24T13:17:46;36.20;93.00
54409;DHT22;40315;48.620;9.828;2023-08-24T13:20:13;36.20;93.50
54409;DHT22;40315;48.620;9.828;2023-08-24T13:22:41;36.20;92.90
54409;DHT22;40315;48.620;9.828;2023-08-24T13:25:08;36.10;93.70
54409;DHT22;40315;48.620;9.828;2023-08-24T13:27:35;36.00;93.40
54409;DHT22;40315;48.620;9.828;2023-08-24T13:30:06;35.90;93.40
54409;DHT22;40315;48.620;9.828;2023-08-24T13:32:34;35.80;93.40
54409;DHT22;40315;48.620;9.828;2023-08-24T13:35:04;35.80;93.40
54409;DHT22;40315;48.620;9.828;2023-08-24T13:37:31;35.90;94.40
54409;DHT22;40315;48.620;9.828;2023-08-24T13:40:00;36.10;93.60
54409;DHT22;40315;48.620;9.828;2023-08-24T13:42:31;35.70;94.10
54409;DHT22;40315;48.620;9.828;2023-08-24T13:44:57;36.10;92.50
54409;DHT22;40315;48.620;9.828;2023-08-24T13:47:24;36.30;92.60
54409;DHT22;40315;48.620;9.828;2023-08-24T13:49:53;36.00;92.00
54409;DHT22;40315;48.620;9.828;2023-08-24T13:52:19;35.80;93.30
54409;DHT22;40315;48.620;9.828;2023-08-24T13:54:46;36.00;92.10
54409;DHT22;40315;48.620;9.828;2023-08-24T13:57:13;36.10;91.00
54409;DHT22;40315;48.620;9.828;2023-08-24T13:59:40;36.00;91.10
54409;DHT22;40315;48.620;9.828;2023-08-24T14:02:09;36.10;91.20
54409;DHT22;40315;48.620;9.828;2023-08-24T14:04:37;36.50;91.40
54409;DHT22;40315;48.620;9.828;2023-08-24T14:07:05;36.70;91.10
54409;DHT22;40315;48.620;9.828;2023-08-24T14:09:32;36.80;90.60
54409;DHT22;40315;48.620;9.828;2023-08-24T14:11:59;36.60;91.10
54409;DHT22;40315;48.620;9.828;2023-08-24T14:14:26;36.80;91.20
54409;DHT22;40315;48.620;9.828;2023-08-24T14:16:56;36.50;91.00
54409;DHT22;40315;48.620;9.828;2023-08-24T14:21:52;36.60;91.40
54409;DHT22;40315;48.620;9.828;2023-08-24T14:24:23;36.70;90.50
54409;DHT22;40315;48.620;9.828;2023-08-24T14:26:49;36.70;90.40
54409;DHT22;40315;48.620;9.828;2023-08-24T14:29:16;36.60;90.50
54409;DHT22;40315;48.620;9.828;2023-08-24T14:31:43;36.20;91.60
54409;DHT22;40315;48.620;9.828;2023-08-24T14:34:12;36.20;91.30
54409;DHT22;40315;48.620;9.828;2023-08-24T14:36:39;36.50;90.70
54409;DHT22;40315;48.620;9.828;2023-08-24T14:39:06;36.20;91.30
54409;DHT22;40315;48.620;9.828;2023-08-24T14:41:37;36.20;91.30
54409;DHT22;40315;48.620;9.828;2023-08-24T14:44:04;36.30;92.70
54409;DHT22;40315;48.620;9.828;2023-08-24T14:46:33;35.90;90.40
54409;DHT22;40315;48.620;9.828;2023-08-24T14:49:00;35.60;92.00
54409;DHT22;40315;48.620;9.828;2023-08-24T14:51:29;35.50;92.50
54409;DHT22;40315;48.620;9.828;2023-08-24T14:53:56;35.70;93.00
54409;DHT22;40315;48.620;9.828;2023-08-24T14:56:23;35.70;92.30
54409;DHT22;40315;48.620;9.828;2023-08-24T14:58:52;35.60;92.30
54409;DHT22;40315;48.620;9.828;2023-08-24T15:01:19;35.30;92.30
54409;DHT22;40315;48.620;9.828;2023-08-24T15:03:46;35.20;92.50
54409;DHT22;40315;48.620;9.828;2023-08-24T15:06:15;34.70;93.30
54409;DHT22;40315;48.620;9.828;2023-08-24T15:08:42;34.90;94.10
54409;DHT22;40315;48.620;9.828;2023-08-24T15:11:10;34.80;92.60
54409;DHT22;40315;48.620;9.828;2023-08-24T15:13:38;34.80;91.60
54409;DHT22;40315;48.620;9.828;2023-08-24T15:16:06;34.60;91.30
54409;DHT22;40315;48.620;9.828;2023-08-24T15:18:34;34.60;92.20
54409;DHT22;40315;48.620;9.828;2023-08-24T15:21:02;34.80;92.50
54409;DHT22;40315;48.620;9.828;2023-08-24T15:23:30;34.80;92.60
54409;DHT22;40315;48.620;9.828;2023-08-24T15:25:58;34.80;92.70
54409;DHT22;40315;48.620;9.828;2023-08-24T15:28:27;34.80;92.20
54409;DHT22;40315;48.620;9.828;2023-08-24T15:30:56;34.60;92.70
54409;DHT22;40315;48.620;9.828;2023-08-24T15:33:24;34.70;93.00
54409;DHT22;40315;48.620;9.828;2023-08-24T15:35:51;34.20;92.00
54409;DHT22;40315;48.620;9.828;2023-08-24T15:38:18;33.90;92.60
54409;DHT22;40315;48.620;9.828;2023-08-24T15:40:52;33.60;93.20
54409;DHT22;40315;48.620;9.828;2023-08-24T15:43:20;33.40;93.40
54409;DHT22;40315;48.620;9.828;2023-08-24T15:45:49;33.30;93.10
54409;DHT22;40315;48.620;9.828;2023-08-24T15:48:16;33.00;93.10
54409;DHT22;40315;48.620;9.828;2023-08-24T15:50:44;32.70;93.40
54409;DHT22;40315;48.620;9.828;2023-08-24T15:53:11;32.50;93.80
54409;DHT22;40315;48.620;9.828;2023-08-24T15:55:38;32.50;94.30
54409;DHT22;40315;48.620;9.828;2023-08-24T15:58:05;32.40;94.30
54409;DHT22;40315;48.620;9.828;2023-08-24T16:00:35;32.30;94.60
54409;DHT22;40315;48.620;9.828;2023-08-24T16:03:02;32.10;94.80
54409;DHT22;40315;48.620;9.828;2023-08-24T16:05:29;31.40;96.30
54409;DHT22;40315;48.620;9.828;2023-08-24T16:08:00;30.60;97.70
54409;DHT22;40315;48.620;9.828;2023-08-24T16:10:27;30.20;98.80
54409;DHT22;40315;48.620;9.828;2023-08-24T16:12:54;29.60;99.30
54409;DHT22;40315;48.620;9.828;2023-08-24T16:15:24;29.50;99.60
54409;DHT22;40315;48.620;9.828;2023-08-24T16:20:24;29.30;99.30
54409;DHT22;40315;48.620;9.828;2023-08-24T16:22:51;28.90;99.90
54409;DHT22;40315;48.620;9.828;2023-08-24T16:25:23;28.60;99.90
54409;DHT22;40315;48.620;9.828;2023-08-24T16:30:22;28.50;99.90
54409;DHT22;40315;48.620;9.828;2023-08-24T16:32:56;28.10;99.90
54409;DHT22;40315;48.620;9.828;2023-08-24T16:35:23;27.80;99.90
54409;DHT22;40315;48.620;9.828;2023-08-24T16:37:52;28.10;99.90
54409;DHT22;40315;48.620;9.828;2023-08-24T16:40:19;28.10;99.90
54409;DHT22;40315;48.620;9.828;2023-08-24T16:42:47;28.00;99.90
54409;DHT22;40315;48.620;9.828;2023-08-24T16:45:17;27.70;99.90
54409;DHT22;40315;48.620;9.828;2023-08-24T16:47:47;27.70;99.90
54409;DHT22;40315;48.620;9.828;2023-08-24T16:50:15;27.60;99.90
54409;DHT22;40315;48.620;9.828;2023-08-24T16:52:47;27.30;99.90
54409;DHT22;40315;48.620;9.828;2023-08-24T16:55:14;27.30;99.90
54409;DHT22;40315;48.620;9.828;2023-08-24T16:57:41;27.20;99.90
54409;DHT22;40315;48.620;9.828;2023-08-24T17:00:14;27.10;99.90
54409;DHT22;40315;48.620;9.828;2023-08-24T17:02:42;26.90;99.90
54409;DHT22;40315;48.620;9.828;2023-08-24T17:05:11;26.90;99.90
54409;DHT22;40315;48.620;9.828;2023-08-24T17:07:39;26.90;99.90
54409;DHT22;40315;48.620;9.828;2023-08-24T17:10:07;26.80;99.90
54409;DHT22;40315;48.620;9.828;2023-08-24T17:12:35;26.80;99.90
54409;DHT22;40315;48.620;9.828;2023-08-24T17:15:02;27.00;99.90
54409;DHT22;40315;48.620;9.828;2023-08-24T17:17:31;27.00;99.90
54409;DHT22;40315;48.620;9.828;2023-08-24T17:20:00;27.30;99.90
54409;DHT22;40315;48.620;9.828;2023-08-24T17:22:27;27.40;99.90
54409;DHT22;40315;48.620;9.828;2023-08-24T17:27:23;27.70;99.90
54409;DHT22;40315;48.620;9.828;2023-08-24T17:29:53;27.90;99.90
54409;DHT22;40315;48.620;9.828;2023-08-24T17:32:20;27.90;99.90
54409;DHT22;40315;48.620;9.828;2023-08-24T17:34:53;27.90;99.90
54409;DHT22;40315;48.620;9.828;2023-08-24T17:37:22;28.00;99.90
54409;DHT22;40315;48.620;9.828;2023-08-24T17:39:49;27.90;99.90
54409;DHT22;40315;48.620;9.828;2023-08-24T17:42:17;27.80;99.90
54409;DHT22;40315;48.620;9.828;2023-08-24T17:44:44;27.60;99.90
54409;DHT22;40315;48.620;9.828;2023-08-24T17:47:11;27.50;99.90
54409;DHT22;40315;48.620;9.828;2023-08-24T17:49:38;27.40;99.90
54409;DHT22;40315;48.620;9.828;2023-08-24T17:52:09;27.40;99.90
54409;DHT22;40315;48.620;9.828;2023-08-24T17:54:38;27.20;99.90
54409;DHT22;40315;48.620;9.828;2023-08-24T17:57:05;27.00;99.90
54409;DHT22;40315;48.620;9.828;2023-08-24T17:59:32;27.00;99.90
54409;DHT22;40315;48.620;9.828;2023-08-24T18:01:59;26.90;99.90
54409;DHT22;40315;48.620;9.828;2023-08-24T18:04:26;26.90;99.90
54409;DHT22;40315;48.620;9.828;2023-08-24T18:06:53;26.90;99.90
54409;DHT22;40315;48.620;9.828;2023-08-24T18:09:22;26.80;99.90
54409;DHT22;40315;48.620;9.828;2023-08-24T18:11:48;26.80;99.90
54409;DHT22;40315;48.620;9.828;2023-08-24T18:14:19;26.80;99.90
54409;DHT22;40315;48.620;9.828;2023-08-24T18:16:48;26.70;99.90
54409;DHT22;40315;48.620;9.828;2023-08-24T18:19:15;26.70;99.90
54409;DHT22;40315;48.620;9.828;2023-08-24T18:21:42;26.60;99.90
54409;DHT22;40315;48.620;9.828;2023-08-24T18:24:09;26.60;99.90
54409;DHT22;40315;48.620;9.828;2023-08-24T18:26:38;26.50;99.90
54409;DHT22;40315;48.620;9.828;2023-08-24T18:29:07;26.50;99.90
54409;DHT22;40315;48.620;9.828;2023-08-24T18:31:36;26.30;99.90
54409;DHT22;40315;48.620;9.828;2023-08-24T18:34:05;26.20;99.90
54409;DHT22;40315;48.620;9.828;2023-08-24T18:36:32;26.10;99.90
54409;DHT22;40315;48.620;9.828;2023-08-24T18:39:00;26.10;99.90
54409;DHT22;40315;48.620;9.828;2023-08-24T18:41:27;26.10;99.90
54409;DHT22;40315;48.620;9.828;2023-08-24T18:43:55;26.10;99.90
54409;DHT22;40315;48.620;9.828;2023-08-24T18:46:22;26.10;99.90
54409;DHT22;40315;48.620;9.828;2023-08-24T18:48:49;26.10;99.90
54409;DHT22;40315;48.620;9.828;2023-08-24T18:51:18;25.80;99.90
54409;DHT22;40315;48.620;9.828;2023-08-24T18:53:48;25.60;99.90
54409;DHT22;40315;48.620;9.828;2023-08-24T18:56:17;25.60;99.90
54409;DHT22;40315;48.620;9.828;2023-08-24T18:58:46;25.70;99.90
54409;DHT22;40315;48.620;9.828;2023-08-24T19:01:14;25.80;99.90
54409;DHT22;40315;48.620;9.828;2023-08-24T19:03:45;25.90;99.90